createdAt,value
2023-02-19T00:01:36.942Z,1.60
2023-02-19T00:04:06.346Z,1.50
2023-02-19T00:06:33.867Z,1.40
2023-02-19T00:09:01.481Z,1.40
2023-02-19T00:11:29.976Z,1.30
2023-02-19T00:13:58.159Z,1.30
2023-02-19T00:16:26.967Z,1.40
2023-02-19T00:18:54.600Z,1.40
2023-02-19T00:21:21.722Z,1.30
2023-02-19T00:23:49.651Z,1.40
2023-02-19T00:26:18.748Z,1.50
2023-02-19T00:28:46.589Z,1.60
2023-02-19T00:31:16.814Z,1.60
2023-02-19T00:33:44.143Z,1.50
2023-02-19T00:36:11.278Z,1.50
2023-02-19T00:38:39.124Z,1.60
2023-02-19T00:41:19.274Z,1.60
2023-02-19T00:43:52.192Z,1.60
2023-02-19T00:46:24.347Z,1.60
2023-02-19T00:48:52.821Z,1.60
2023-02-19T00:51:20.374Z,1.60
2023-02-19T00:53:47.411Z,1.60
2023-02-19T00:56:14.445Z,1.60
2023-02-19T00:58:41.690Z,1.60
2023-02-19T01:01:09.447Z,1.60
2023-02-19T01:03:37.192Z,1.50
2023-02-19T01:06:05.937Z,1.50
2023-02-19T01:08:33.491Z,1.50
2023-02-19T01:11:01.195Z,1.50
2023-02-19T01:13:31.222Z,1.50
2023-02-19T01:16:05.366Z,1.60
2023-02-19T01:18:32.776Z,1.60
2023-02-19T01:20:59.787Z,1.50
2023-02-19T01:23:26.903Z,1.60
2023-02-19T01:25:53.973Z,1.50
2023-02-19T01:28:20.918Z,1.60
2023-02-19T01:30:47.885Z,1.50
2023-02-19T01:33:14.932Z,1.50
2023-02-19T01:35:42.080Z,1.50
2023-02-19T01:38:09.043Z,1.60
2023-02-19T01:40:36.095Z,1.50
2023-02-19T01:43:03.863Z,1.50
2023-02-19T01:45:31.603Z,1.50
2023-02-19T01:48:17.292Z,1.50
2023-02-19T01:51:04.413Z,1.50
2023-02-19T01:53:34.349Z,1.50
2023-02-19T01:56:01.657Z,1.50
2023-02-19T01:58:30.667Z,1.40
2023-02-19T02:00:58.059Z,1.40
2023-02-19T02:03:25.240Z,1.50
2023-02-19T02:06:01.924Z,1.50
2023-02-19T02:08:47.346Z,1.50
2023-02-19T02:11:14.537Z,1.50
2023-02-19T02:13:41.816Z,1.50
2023-02-19T02:16:20.770Z,1.50
2023-02-19T02:18:56.871Z,1.40
2023-02-19T02:21:30.337Z,1.50
2023-02-19T02:24:25.920Z,1.50
2023-02-19T02:27:11.619Z,1.40
2023-02-19T02:29:49.369Z,1.40
2023-02-19T02:32:20.251Z,1.40
2023-02-19T02:34:54.897Z,1.40
2023-02-19T02:37:26.212Z,1.40
2023-02-19T02:39:54.051Z,1.40
2023-02-19T02:42:29.818Z,1.40
2023-02-19T02:45:16.240Z,1.40
2023-02-19T02:47:45.488Z,1.40
2023-02-19T02:50:15.811Z,1.30
2023-02-19T02:53:03.014Z,1.30
2023-02-19T02:55:31.709Z,1.30
2023-02-19T02:57:58.856Z,1.30
2023-02-19T03:00:26.500Z,1.40
2023-02-19T03:02:54.538Z,1.40
2023-02-19T03:05:42.456Z,1.40
2023-02-19T03:08:12.220Z,1.40
2023-02-19T03:10:48.137Z,1.40
2023-02-19T03:13:53.656Z,1.30
2023-02-19T03:16:43.010Z,1.40
2023-02-19T03:19:20.703Z,1.40
2023-02-19T03:22:11.113Z,1.30
2023-02-19T03:25:00.499Z,1.30
2023-02-19T03:27:29.369Z,1.30
2023-02-19T03:29:58.858Z,1.30
2023-02-19T03:32:28.972Z,1.20
2023-02-19T03:34:58.730Z,1.20
2023-02-19T03:37:28.782Z,1.20
2023-02-19T03:39:55.916Z,1.20
2023-02-19T03:42:31.604Z,1.20
2023-02-19T03:45:11.882Z,1.20
2023-02-19T03:47:44.040Z,1.20
2023-02-19T03:50:11.039Z,1.20
2023-02-19T03:52:43.885Z,1.20
2023-02-19T03:55:10.844Z,1.20
2023-02-19T03:57:37.827Z,1.30
2023-02-19T04:00:08.185Z,1.20
2023-02-19T04:02:38.012Z,1.20
2023-02-19T04:05:16.748Z,1.20
2023-02-19T04:07:46.280Z,1.20
2023-02-19T04:10:13.476Z,1.10
2023-02-19T04:12:41.426Z,1.20
2023-02-19T04:15:12.469Z,1.20
2023-02-19T04:17:42.041Z,1.20
2023-02-19T04:20:10.230Z,1.20
2023-02-19T04:22:37.633Z,1.20
2023-02-19T04:25:04.893Z,1.10
2023-02-19T04:27:32.969Z,1.10
2023-02-19T04:30:00.007Z,1.20
2023-02-19T04:32:27.210Z,1.20
2023-02-19T04:34:54.472Z,1.20
2023-02-19T04:37:21.547Z,1.10
2023-02-19T04:39:48.664Z,1.20
2023-02-19T04:42:15.693Z,1.10
2023-02-19T04:44:42.794Z,1.10
2023-02-19T04:47:09.886Z,1.10
2023-02-19T04:49:36.859Z,1.10
2023-02-19T04:52:03.938Z,1.10
2023-02-19T04:54:30.916Z,1.10
2023-02-19T04:56:57.941Z,1.20
2023-02-19T04:59:24.909Z,1.10
2023-02-19T05:01:52.029Z,1.10
2023-02-19T05:04:19.235Z,1.10
2023-02-19T05:06:46.340Z,1.10
2023-02-19T05:09:13.444Z,1.10
2023-02-19T05:11:40.496Z,1.10
2023-02-19T05:14:07.525Z,1.10
2023-02-19T05:16:34.687Z,1.00
2023-02-19T05:19:01.734Z,1.00
2023-02-19T05:21:28.727Z,1.00
2023-02-19T05:23:55.701Z,1.00
2023-02-19T05:26:23.699Z,0.90
2023-02-19T05:28:51.860Z,1.00
2023-02-19T05:31:19.385Z,0.90
2023-02-19T05:33:51.152Z,0.90
2023-02-19T05:36:19.633Z,1.00
2023-02-19T05:38:47.074Z,0.90
2023-02-19T05:41:15.107Z,1.00
2023-02-19T05:43:42.953Z,1.00
2023-02-19T05:46:10.672Z,1.00
2023-02-19T05:48:37.723Z,1.00
2023-02-19T05:51:05.859Z,1.00
2023-02-19T05:53:33.488Z,1.00
2023-02-19T05:56:00.497Z,1.00
2023-02-19T05:58:27.928Z,1.00
2023-02-19T06:00:55.342Z,1.00
2023-02-19T06:03:22.852Z,1.00
2023-02-19T06:05:49.758Z,1.00
2023-02-19T06:08:16.765Z,1.00
2023-02-19T06:10:44.136Z,0.90
2023-02-19T06:13:11.204Z,0.90
2023-02-19T06:15:38.417Z,1.00
2023-02-19T06:18:05.482Z,1.00
2023-02-19T06:20:33.220Z,1.00
2023-02-19T06:23:00.169Z,1.00
2023-02-19T06:25:27.223Z,1.00
2023-02-19T06:27:54.139Z,1.00
2023-02-19T06:30:21.455Z,1.00
2023-02-19T06:32:52.087Z,1.10
2023-02-19T06:35:19.086Z,1.00
2023-02-19T06:37:49.633Z,1.00
2023-02-19T06:40:16.658Z,1.10
2023-02-19T06:42:43.723Z,1.10
2023-02-19T06:45:11.228Z,1.10
2023-02-19T06:47:38.232Z,1.10
2023-02-19T06:50:05.382Z,1.10
2023-02-19T06:52:32.508Z,1.10
2023-02-19T06:54:59.486Z,1.20
2023-02-19T06:57:26.378Z,1.10
2023-02-19T06:59:53.378Z,1.20
2023-02-19T07:02:20.354Z,1.20
2023-02-19T07:04:47.319Z,1.20
2023-02-19T07:07:14.321Z,1.20
2023-02-19T07:09:41.292Z,1.10
2023-02-19T07:12:08.374Z,1.20
2023-02-19T07:14:35.440Z,1.20
2023-02-19T07:17:03.275Z,1.20
2023-02-19T07:19:30.403Z,1.20
2023-02-19T07:21:57.389Z,1.30
2023-02-19T07:24:24.395Z,1.20
2023-02-19T07:26:51.325Z,1.20
2023-02-19T07:29:18.472Z,1.20
2023-02-19T07:31:45.653Z,1.20
2023-02-19T07:34:12.661Z,1.10
2023-02-19T07:36:39.992Z,1.20
2023-02-19T07:39:09.202Z,1.20
2023-02-19T07:41:37.023Z,1.20
2023-02-19T07:44:04.157Z,1.10
2023-02-19T07:46:32.344Z,1.10
2023-02-19T07:49:00.307Z,1.10
2023-02-19T07:51:27.398Z,1.10
2023-02-19T07:53:54.380Z,1.20
2023-02-19T07:56:21.419Z,1.20
2023-02-19T07:58:48.557Z,1.20
2023-02-19T08:01:17.198Z,1.20
2023-02-19T08:03:44.507Z,1.20
2023-02-19T08:06:12.031Z,1.20
2023-02-19T08:08:39.793Z,1.20
2023-02-19T08:11:25.620Z,1.20
2023-02-19T08:13:52.731Z,1.30
2023-02-19T08:16:29.580Z,1.30
2023-02-19T08:19:00.657Z,1.40
2023-02-19T08:21:27.656Z,1.40
2023-02-19T08:23:54.688Z,1.40
2023-02-19T08:26:21.742Z,1.40
2023-02-19T08:28:48.712Z,1.50
2023-02-19T08:31:15.926Z,1.40
2023-02-19T08:33:43.179Z,1.50
2023-02-19T08:36:11.320Z,1.50
2023-02-19T08:38:38.518Z,1.50
2023-02-19T08:41:06.462Z,1.50
2023-02-19T08:43:33.772Z,1.40
2023-02-19T08:46:00.861Z,1.40
2023-02-19T08:48:28.298Z,1.50
2023-02-19T08:50:56.284Z,1.50
2023-02-19T08:53:23.906Z,1.60
2023-02-19T08:55:51.155Z,1.60
2023-02-19T08:58:18.243Z,1.50
2023-02-19T09:00:45.473Z,1.50
2023-02-19T09:03:12.451Z,1.50
2023-02-19T09:05:39.997Z,1.40
2023-02-19T09:08:07.054Z,1.40
2023-02-19T09:10:34.118Z,1.40
2023-02-19T09:13:02.646Z,1.40
2023-02-19T09:15:30.354Z,1.30
2023-02-19T09:17:57.496Z,1.20
2023-02-19T09:20:24.547Z,1.10
2023-02-19T09:22:56.427Z,1.10
2023-02-19T09:25:23.637Z,1.10
2023-02-19T09:27:50.658Z,1.10
2023-02-19T09:30:17.667Z,1.10
2023-02-19T09:32:44.763Z,1.10
2023-02-19T09:35:11.799Z,0.90
2023-02-19T09:37:38.749Z,1.00
2023-02-19T09:40:06.022Z,1.10
2023-02-19T09:42:33.323Z,1.10
2023-02-19T09:45:01.151Z,1.00
2023-02-19T09:47:29.760Z,1.00
2023-02-19T09:49:59.630Z,1.10
2023-02-19T09:52:38.273Z,1.10
2023-02-19T09:55:13.534Z,1.10
2023-02-19T09:57:41.042Z,1.20
2023-02-19T10:00:22.258Z,1.20
2023-02-19T10:02:53.730Z,1.20
2023-02-19T10:05:21.634Z,1.20
2023-02-19T10:07:51.160Z,1.20
2023-02-19T10:10:24.565Z,1.30
2023-02-19T10:12:53.149Z,1.30
2023-02-19T10:15:27.561Z,1.30
2023-02-19T10:17:54.957Z,1.30
2023-02-19T10:20:27.951Z,1.30
2023-02-19T10:23:02.723Z,1.30
2023-02-19T10:25:30.375Z,1.20
2023-02-19T10:28:00.670Z,1.20
2023-02-19T10:30:32.279Z,1.00
2023-02-19T10:33:15.883Z,1.00
2023-02-19T10:35:51.965Z,1.00
2023-02-19T10:38:20.385Z,1.10
2023-02-19T10:40:47.682Z,1.00
2023-02-19T10:43:22.952Z,1.00
2023-02-19T10:45:50.710Z,1.00
2023-02-19T10:48:25.558Z,1.10
2023-02-19T10:50:57.333Z,1.00
2023-02-19T10:53:35.697Z,1.00
2023-02-19T10:56:14.501Z,1.00
2023-02-19T10:58:45.009Z,1.10
2023-02-19T11:01:15.013Z,1.20
2023-02-19T11:03:42.648Z,1.10
2023-02-19T11:06:10.784Z,1.10
2023-02-19T11:08:43.946Z,1.10
2023-02-19T11:11:11.262Z,1.10
2023-02-19T11:13:40.229Z,1.00
2023-02-19T11:16:07.443Z,1.00
2023-02-19T11:18:38.098Z,1.00
2023-02-19T11:21:06.246Z,1.00
2023-02-19T11:23:33.210Z,1.00
2023-02-19T11:26:01.844Z,1.00
2023-02-19T11:28:51.978Z,0.90
2023-02-19T11:31:24.528Z,0.90
2023-02-19T11:34:26.418Z,0.90
2023-02-19T11:37:08.747Z,0.80
2023-02-19T11:39:36.333Z,0.70
2023-02-19T11:42:18.726Z,0.70
2023-02-19T11:45:07.396Z,0.70
2023-02-19T11:47:53.110Z,0.80
2023-02-19T11:50:27.589Z,0.90
2023-02-19T11:53:13.010Z,0.80
2023-02-19T11:55:55.212Z,0.90
2023-02-19T11:58:37.524Z,0.90
2023-02-19T12:01:10.886Z,0.80
2023-02-19T12:03:52.740Z,0.80
2023-02-19T12:06:24.250Z,0.70
2023-02-19T12:09:02.109Z,0.80
2023-02-19T12:11:32.465Z,0.80
2023-02-19T12:14:18.009Z,0.80
2023-02-19T12:16:50.780Z,0.90
2023-02-19T12:19:23.881Z,1.00
2023-02-19T12:22:00.125Z,0.90
2023-02-19T12:24:33.240Z,1.00
2023-02-19T12:27:03.429Z,1.00
2023-02-19T12:29:36.341Z,1.00
2023-02-19T12:32:29.780Z,1.00
2023-02-19T12:35:16.361Z,0.90
2023-02-19T12:38:02.047Z,1.00
2023-02-19T12:40:43.726Z,1.00
2023-02-19T12:43:16.107Z,1.00
2023-02-19T12:45:45.948Z,1.00
2023-02-19T12:48:24.224Z,0.90
2023-02-19T12:50:54.320Z,0.90
2023-02-19T12:53:33.604Z,0.90
2023-02-19T12:56:03.753Z,0.80
2023-02-19T12:58:35.669Z,0.80
2023-02-19T13:01:03.289Z,0.80
2023-02-19T13:03:30.296Z,0.70
2023-02-19T13:06:21.407Z,0.60
2023-02-19T13:09:06.411Z,0.60
2023-02-19T13:11:39.040Z,0.60
2023-02-19T13:14:12.180Z,0.80
2023-02-19T13:16:40.760Z,0.50
2023-02-19T13:19:07.796Z,0.50
2023-02-19T13:21:54.846Z,0.50
2023-02-19T13:24:25.410Z,0.50
2023-02-19T13:27:01.115Z,0.50
2023-02-19T13:29:37.088Z,0.50
2023-02-19T13:32:07.256Z,0.50
2023-02-19T13:34:49.527Z,0.50
2023-02-19T13:37:17.228Z,0.40
2023-02-19T13:39:54.195Z,0.40
2023-02-19T13:42:28.892Z,0.50
2023-02-19T13:44:57.993Z,0.50
2023-02-19T13:47:44.274Z,0.50
2023-02-19T13:50:18.033Z,0.50
2023-02-19T13:52:45.270Z,0.50
2023-02-19T13:55:30.946Z,0.50
2023-02-19T13:58:17.951Z,0.50
2023-02-19T14:00:49.515Z,0.50
2023-02-19T14:03:30.569Z,0.50
2023-02-19T14:06:01.993Z,0.40
2023-02-19T14:08:52.849Z,0.40
2023-02-19T14:11:39.746Z,0.50
2023-02-19T14:14:36.400Z,0.50
2023-02-19T14:17:23.744Z,0.50
2023-02-19T14:22:57.594Z,0.50
2023-02-19T14:25:32.789Z,0.50
2023-02-19T14:28:05.908Z,0.40
2023-02-19T14:30:34.614Z,0.40
2023-02-19T14:33:10.714Z,0.40
2023-02-19T14:35:43.215Z,0.40
2023-02-19T14:38:30.485Z,0.40
2023-02-19T14:44:01.378Z,0.40
2023-02-19T14:46:31.000Z,0.30
2023-02-19T14:49:02.259Z,0.40
2023-02-19T14:51:32.443Z,0.30
2023-02-19T14:54:00.715Z,0.30
2023-02-19T14:56:29.821Z,0.30
2023-02-19T14:59:43.343Z,0.30
2023-02-19T15:02:17.604Z,0.30
2023-02-19T15:04:44.814Z,0.30
2023-02-19T15:07:15.092Z,0.30
2023-02-19T15:09:47.269Z,0.30
2023-02-19T15:12:20.185Z,0.30
2023-02-19T15:14:47.800Z,0.20
2023-02-19T15:17:24.915Z,0.20
2023-02-19T15:19:52.491Z,0.30
2023-02-19T15:22:21.358Z,0.20
2023-02-19T15:24:48.812Z,0.20
2023-02-19T15:27:20.272Z,0.20
2023-02-19T15:29:53.277Z,0.20
2023-02-19T15:32:26.660Z,0.20
2023-02-19T15:35:01.025Z,0.20
2023-02-19T15:37:29.854Z,0.20
2023-02-19T15:39:58.031Z,0.10
2023-02-19T15:42:26.967Z,0.10
2023-02-19T15:44:57.807Z,0.20
2023-02-19T15:47:35.907Z,0.20
2023-02-19T15:50:23.384Z,0.20
2023-02-19T15:52:50.396Z,0.20
2023-02-19T15:55:27.418Z,0.20
2023-02-19T15:57:59.107Z,0.20
2023-02-19T16:00:47.452Z,0.10
2023-02-19T16:03:21.267Z,0.10
2023-02-19T16:06:05.724Z,0.10
2023-02-19T16:08:33.799Z,0.20
2023-02-19T16:11:02.372Z,0.20
2023-02-19T16:13:30.893Z,0.20
2023-02-19T16:16:15.428Z,0.20
2023-02-19T16:18:49.932Z,0.20
2023-02-19T16:21:18.391Z,0.20
2023-02-19T16:23:46.968Z,0.20
2023-02-19T16:26:14.405Z,0.20
2023-02-19T16:28:42.383Z,0.20
2023-02-19T16:31:11.276Z,0.20
2023-02-19T16:33:41.487Z,0.30
2023-02-19T16:36:19.012Z,0.20
2023-02-19T16:39:13.265Z,0.20
2023-02-19T16:41:40.289Z,0.20
2023-02-19T16:44:25.768Z,0.20
2023-02-19T16:46:54.742Z,0.20
2023-02-19T16:49:22.761Z,0.20
2023-02-19T16:51:50.046Z,0.20
2023-02-19T16:54:17.362Z,0.30
2023-02-19T16:56:44.251Z,0.30
2023-02-19T16:59:11.421Z,0.20
2023-02-19T17:01:39.046Z,0.20
2023-02-19T17:04:08.412Z,0.20
2023-02-19T17:06:38.074Z,0.20
2023-02-19T17:09:06.742Z,0.30
2023-02-19T17:11:33.856Z,0.30
2023-02-19T17:14:01.166Z,0.30
2023-02-19T17:16:32.334Z,0.30
2023-02-19T17:18:59.322Z,0.30
2023-02-19T17:21:27.513Z,0.30
2023-02-19T17:23:54.544Z,0.30
2023-02-19T17:26:23.413Z,0.30
2023-02-19T17:28:50.701Z,0.40
2023-02-19T17:31:17.934Z,0.30
2023-02-19T17:33:45.195Z,0.30
2023-02-19T17:36:17.064Z,0.30
2023-02-19T17:38:44.048Z,0.30
2023-02-19T17:41:11.375Z,0.30
2023-02-19T17:43:38.618Z,0.30
2023-02-19T17:46:05.640Z,0.30
2023-02-19T17:48:33.166Z,0.30
2023-02-19T17:51:00.426Z,0.30
2023-02-19T17:53:27.397Z,0.20
2023-02-19T17:55:54.314Z,0.30
2023-02-19T17:58:21.470Z,0.20
2023-02-19T18:00:48.404Z,0.20
2023-02-19T18:03:15.365Z,0.20
2023-02-19T18:05:42.725Z,0.20
2023-02-19T18:08:09.749Z,0.20
2023-02-19T18:10:37.324Z,0.20
2023-02-19T18:13:04.426Z,0.20
2023-02-19T18:15:31.500Z,0.20
2023-02-19T18:17:58.920Z,0.20
2023-02-19T18:20:27.416Z,0.20
2023-02-19T18:22:55.078Z,0.10
2023-02-19T18:25:23.127Z,0.10
2023-02-19T18:27:51.948Z,0.10
2023-02-19T18:30:19.755Z,0.20
2023-02-19T18:32:49.835Z,0.20
2023-02-19T18:35:17.797Z,0.20
2023-02-19T18:37:49.772Z,0.30
2023-02-19T18:40:16.872Z,0.30
2023-02-19T18:42:43.953Z,0.30
2023-02-19T18:45:11.091Z,0.40
2023-02-19T18:47:38.178Z,0.30
2023-02-19T18:50:08.514Z,0.40
2023-02-19T18:52:35.599Z,0.40
2023-02-19T18:55:02.659Z,0.40
2023-02-19T18:57:29.794Z,0.40
2023-02-19T18:59:56.920Z,0.40
2023-02-19T19:02:24.033Z,0.40
2023-02-19T19:04:52.402Z,0.40
2023-02-19T19:07:19.792Z,0.40
2023-02-19T19:09:47.426Z,0.40
2023-02-19T19:12:14.940Z,0.40
2023-02-19T19:14:42.186Z,0.40
2023-02-19T19:17:09.244Z,0.40
2023-02-19T19:19:36.220Z,0.50
2023-02-19T19:22:03.398Z,0.50
2023-02-19T19:24:30.512Z,0.60
2023-02-19T19:26:57.610Z,0.60
2023-02-19T19:29:24.885Z,0.50
2023-02-19T19:31:52.187Z,0.50
2023-02-19T19:34:19.252Z,0.50
2023-02-19T19:36:46.734Z,0.50
2023-02-19T19:39:13.912Z,0.60
2023-02-19T19:41:41.084Z,0.50
2023-02-19T19:44:08.549Z,0.50
2023-02-19T19:46:35.660Z,0.50
2023-02-19T19:49:02.862Z,0.50
2023-02-19T19:51:33.531Z,0.50
2023-02-19T19:54:01.313Z,0.40
2023-02-19T19:56:28.414Z,0.40
2023-02-19T19:58:55.407Z,0.40
2023-02-19T20:01:23.481Z,0.40
2023-02-19T20:03:53.397Z,0.40
2023-02-19T20:06:28.104Z,0.40
2023-02-19T20:08:55.199Z,0.40
2023-02-19T20:11:22.295Z,0.40
2023-02-19T20:13:49.333Z,0.40
2023-02-19T20:16:16.513Z,0.40
2023-02-19T20:18:43.586Z,0.40
2023-02-19T20:21:11.168Z,0.50
2023-02-19T20:23:38.987Z,0.50
2023-02-19T20:26:06.446Z,0.50
2023-02-19T20:28:33.843Z,0.50
2023-02-19T20:31:00.930Z,0.60
2023-02-19T20:33:27.930Z,0.60
2023-02-19T20:35:57.054Z,0.60
2023-02-19T20:38:24.400Z,0.60
2023-02-19T20:40:51.491Z,0.60
2023-02-19T20:43:18.421Z,0.60
2023-02-19T20:45:46.806Z,0.60
2023-02-19T20:48:17.093Z,0.70
2023-02-19T20:50:44.099Z,0.70
2023-02-19T20:53:11.227Z,0.70
2023-02-19T20:55:38.349Z,0.70
2023-02-19T20:58:05.501Z,0.70
2023-02-19T21:00:32.631Z,0.70
2023-02-19T21:02:59.676Z,0.70
2023-02-19T21:05:26.691Z,0.70
2023-02-19T21:07:53.759Z,0.70
2023-02-19T21:10:20.838Z,0.70
2023-02-19T21:12:48.285Z,0.70
2023-02-19T21:15:15.315Z,0.70
2023-02-19T21:17:44.692Z,0.70
2023-02-19T21:20:11.856Z,0.70
2023-02-19T21:22:38.995Z,0.70
2023-02-19T21:25:06.308Z,0.70
2023-02-19T21:27:33.307Z,0.70
2023-02-19T21:30:00.712Z,0.70
2023-02-19T21:32:27.850Z,0.70
2023-02-19T21:34:55.110Z,0.70
2023-02-19T21:37:22.100Z,0.70
2023-02-19T21:39:49.197Z,0.70
2023-02-19T21:42:16.271Z,0.70
2023-02-19T21:44:43.342Z,0.70
2023-02-19T21:47:11.447Z,0.70
2023-02-19T21:49:38.508Z,0.70
2023-02-19T21:52:05.650Z,0.70
2023-02-19T21:54:32.745Z,0.70
2023-02-19T21:57:01.547Z,0.70
2023-02-19T21:59:28.638Z,0.70
2023-02-19T22:01:57.315Z,0.70
2023-02-19T22:04:24.830Z,0.80
2023-02-19T22:06:54.591Z,0.80
2023-02-19T22:09:21.571Z,0.80
2023-02-19T22:11:48.632Z,0.80
2023-02-19T22:14:15.757Z,0.80
2023-02-19T22:16:42.891Z,0.80
2023-02-19T22:19:09.990Z,0.80
2023-02-19T22:21:41.704Z,0.80
2023-02-19T22:24:13.804Z,0.80
2023-02-19T22:26:40.737Z,0.80
2023-02-19T22:29:08.684Z,0.90
2023-02-19T22:31:36.025Z,0.80
2023-02-19T22:34:03.601Z,0.80
2023-02-19T22:36:31.568Z,0.80
2023-02-19T22:38:58.876Z,0.90
2023-02-19T22:41:26.118Z,0.80
2023-02-19T22:43:56.825Z,0.90
2023-02-19T22:46:24.752Z,0.80
2023-02-19T22:48:51.784Z,0.90
2023-02-19T22:51:20.698Z,0.90
2023-02-19T22:53:48.825Z,0.90
2023-02-19T22:56:16.732Z,0.80
2023-02-19T22:58:43.958Z,0.80
2023-02-19T23:01:12.488Z,0.80
2023-02-19T23:03:49.951Z,0.80
2023-02-19T23:06:17.961Z,0.90
2023-02-19T23:08:45.054Z,0.90
2023-02-19T23:11:12.440Z,1.00
2023-02-19T23:13:42.717Z,0.90
2023-02-19T23:16:09.951Z,0.90
2023-02-19T23:18:37.192Z,0.90
2023-02-19T23:21:04.172Z,0.90
2023-02-19T23:23:31.167Z,0.90
2023-02-19T23:25:58.252Z,0.90
2023-02-19T23:28:25.296Z,0.90
2023-02-19T23:30:52.379Z,0.80
2023-02-19T23:33:19.471Z,0.80
2023-02-19T23:35:46.520Z,0.80
2023-02-19T23:38:13.479Z,0.80
2023-02-19T23:40:40.647Z,0.80
2023-02-19T23:43:07.652Z,0.80
2023-02-19T23:45:34.642Z,0.80
2023-02-19T23:48:01.711Z,0.70
2023-02-19T23:50:28.740Z,0.70
2023-02-19T23:52:57.096Z,0.70
2023-02-19T23:55:27.262Z,0.60
2023-02-19T23:57:54.433Z,0.70
